メインページ
METAR-TAF:

METAR-TAF

空港 :

上海浦東, 中華人民共和国

上海浦東国際空港

緯度: 31-07N, 経度: 121-46E, 海抜: 4m

現時点の気象観測

当レポートは36分前の23:00(UTC)に作成
の風 10kt
気温 21°C
湿度 94%
気圧 1014 hPa
視程: 8000m
高度500ftの雲は散在している
高度3300ftの曇り
小雨

METAR: ZSPD 232300Z 09005MPS 8000 -RA SCT005 OVC033 21/20 Q1014 NOSIG

時間: 07:36 (23:36 UTC)

予報

当レポートは8時間24分前の15:12(UTC)に作成
予報は23日の 18時(UTC)から 24日の 18時(UTC)まで有効
東/南東の風 8kt
視程: 6000m
高度1100ftの千切れ雲あり
23日の 18時(UTC)から 23日の 24時(UTC)まで一時的に
高度800ftの千切れ雲あり
高度3000ftの雲はほとんどない, 積乱雲.
にわか雨

TAF: ZSPD 231512Z 2318/2418 12004MPS 6000 BKN011 TX23/2406Z TN18/2321Z TEMPO 2318/2324 SHRA BKN008 FEW030CB

4,000以上の空港の気象観測と天気予報(METAR報とTAF報)

利用可能な観測所は地図上に黄色い丸と赤い丸で示す。

丸の上にカーソルを重ねると観測所名を参照できる。

次にクリックすると気象観測と天気予報を参照できる。

マップの切り替え:黒色「×」印の緑ボタンをクリックして拡大、「-」印の緑ボタンをクリックして縮小、緑色の三角印をクリックして隣りの地図に切り替え


METAR-TAF: